Aspen Hill, Maryland
Current Conditions -  °F | °C
As of 2:35 AM on Thursday 23 Oct 2014 (Local Time) from KGAI Reporting Station
Overcast Overcast  
Wind Chill: 43°   Ceiling: 3400
Heat Index: 48°   Visibility: 10mi
Dew Point: 41°   Wind: 13mph
Humidity: 76%   Direction: 300°WNW
Pressure: 29.93"   Gusts: NA
Location:  39.08°N, 77.09°W
Report Text: KGAI 230635Z 30011KT 10SM OVC034 09/05 A2993 RMK AO1
Loading
Personal Weather Stations






























Interactive Weather Map
Tropical Storm Tracking
New forecast layout! Learn more

10-Day Weather Forecast

Advertisements
Track Severe Weather on mobile